Time;durP1;ratioP1;P1;durP2;ratioP2;P2;SDS_P1;SDS_P2;PMS_P1;PMS_P2;Temp;Humidity;BMP_temperature;BMP_pressure;BME280_temperature;BME280_humidity;BME280_pressure;Samples;Min_cycle;Max_cycle;Signal;HPM_P1;HPM_P2
2022/06/22 00:01:49;;;;;;;5.53;2.12;;;;;;;31.87;31.98;98561.19;1822766;76;28306;-44
2022/06/22 00:04:44;;;;;;;4.70;1.98;;;;;;;31.88;32.00;98544.78;1796435;78;28418;-44
2022/06/22 00:07:42;;;;;;;5.45;1.90;;;;;;;31.87;32.08;98550.90;1774727;79;28311;-43
2022/06/22 00:10:33;;;;;;;4.53;1.90;;;;;;;31.86;32.11;98545.64;1808419;76;28290;-43
2022/06/22 00:13:24;;;;;;;3.65;2.02;;;;;;;31.85;32.14;98543.45;1833582;77;28314;-43
2022/06/22 00:16:19;;;;;;;4.75;2.00;;;;;;;31.85;32.24;98546.80;1821241;77;33325;-42
2022/06/22 00:19:16;;;;;;;3.45;1.90;;;;;;;31.87;32.28;98559.80;1839585;77;28239;-42
2022/06/22 00:22:05;;;;;;;4.53;1.70;;;;;;;31.87;32.32;98549.52;1827444;78;28320;-44
2022/06/22 00:25:03;;;;;;;3.25;1.60;;;;;;;31.87;32.25;98549.52;1809516;77;28381;-44
2022/06/22 00:27:52;;;;;;;4.33;1.87;;;;;;;31.87;32.29;98545.91;1816083;78;31355;-45
2022/06/22 00:30:46;;;;;;;3.40;1.77;;;;;;;31.85;32.29;98546.80;1816042;77;28484;-43
2022/06/22 00:33:35;;;;;;;4.97;1.70;;;;;;;31.88;32.37;98548.35;1812774;78;28278;-43
2022/06/22 00:36:23;;;;;;;5.62;1.92;;;;;;;31.88;32.46;98550.34;1808047;77;28963;-43
2022/06/22 00:39:21;;;;;;;3.67;1.82;;;;;;;31.89;32.50;98560.30;1824404;77;28267;-44
2022/06/22 00:42:15;;;;;;;5.23;1.80;;;;;;;31.88;32.45;98547.56;1803623;77;28418;-45
2022/06/22 00:45:10;;;;;;;4.65;1.75;;;;;;;31.88;32.49;98555.89;1849535;77;28227;-43
2022/06/22 00:48:03;;;;;;;2.35;1.60;;;;;;;31.89;32.49;98549.18;1814109;77;28296;-44
2022/06/22 00:51:07;;;;;;;4.10;1.80;;;;;;;31.88;32.54;98555.30;1814331;76;28437;-43
2022/06/22 00:53:59;;;;;;;2.85;1.75;;;;;;;31.88;32.56;98555.89;1821771;78;28431;-45
2022/06/22 00:56:53;;;;;;;3.30;1.70;;;;;;;31.85;32.60;98555.95;1832066;77;28288;-42
2022/06/22 00:59:47;;;;;;;3.40;1.90;;;;;;;31.84;32.62;98554.30;1835525;77;28321;-44
2022/06/22 01:02:47;;;;;;;3.10;1.80;;;;;;;31.85;32.60;98559.30;1810107;78;28269;-43
2022/06/22 01:05:44;;;;;;;2.90;1.80;;;;;;;31.87;32.63;98554.23;1820107;77;28283;-42
2022/06/22 01:08:45;;;;;;;6.12;1.90;;;;;;;31.86;32.68;98558.14;1831703;77;28769;-43
2022/06/22 01:15:07;;;;;;;3.83;1.80;;;;;;;31.82;32.76;98579.36;1831819;77;28285;-44
2022/06/22 01:18:13;;;;;;;4.87;1.98;;;;;;;31.81;32.80;98591.63;1827881;77;28348;-42
2022/06/22 01:21:19;;;;;;;4.95;1.90;;;;;;;31.80;32.88;98592.75;1823251;76;38641;-43
2022/06/22 01:24:16;;;;;;;5.72;1.60;;;;;;;31.79;32.93;98604.98;1824080;77;28420;-45
2022/06/22 01:27:32;;;;;;;3.52;1.60;;;;;;;31.81;32.93;98609.09;1818476;76;28455;-46
2022/06/22 01:30:26;;;;;;;2.92;1.90;;;;;;;31.81;32.98;98604.13;1812691;77;28265;-44
2022/06/22 01:33:32;;;;;;;3.30;1.70;;;;;;;31.80;33.07;98608.03;1822376;77;28218;-45
2022/06/22 01:36:29;;;;;;;3.85;1.70;;;;;;;31.79;33.10;98607.20;1780645;79;28474;-44
2022/06/22 01:39:18;;;;;;;4.37;1.50;;;;;;;31.79;33.18;98596.66;1776644;78;28412;-42
2022/06/22 01:42:21;;;;;;;3.45;1.67;;;;;;;31.82;33.21;98573.81;1780232;78;28408;-42
2022/06/22 01:45:40;;;;;;;4.23;1.80;;;;;;;31.84;33.20;98579.30;1756439;77;28476;-46
2022/06/22 01:48:40;;;;;;;4.55;1.75;;;;;;;31.84;33.25;98592.36;1806434;77;28330;-45
2022/06/22 01:51:34;;;;;;;3.83;1.95;;;;;;;31.82;33.35;98598.81;1798403;78;28356;-43
2022/06/22 01:54:26;;;;;;;3.93;1.60;;;;;;;31.82;33.39;98587.14;1796766;78;28320;-44
2022/06/22 01:57:27;;;;;;;5.30;1.80;;;;;;;31.80;33.42;98573.31;1795703;78;28445;-44
2022/06/22 02:00:21;;;;;;;4.50;1.70;;;;;;;31.82;33.48;98587.14;1821689;77;28380;-44
2022/06/22 02:03:13;;;;;;;3.77;1.72;;;;;;;31.84;33.52;98579.86;1820841;77;28356;-44
2022/06/22 02:07:44;;;;;;;3.80;1.70;;;;;;;31.85;33.53;98588.46;1833405;76;28334;-43
2022/06/22 02:09:00;;;;;;;2.87;1.67;;;;;;;31.87;33.54;98590.34;1811113;77;28351;-43
2022/06/22 02:12:41;;;;;;;4.47;1.40;;;;;;;31.87;33.54;98600.07;1831527;76;28298;-42
2022/06/22 02:14:47;;;;;;;2.30;1.55;;;;;;;31.88;33.59;98601.13;1825334;76;28254;-42
2022/06/22 02:17:39;;;;;;;3.60;1.60;;;;;;;31.86;33.63;98604.80;1822101;77;28316;-44
2022/06/22 02:20:31;;;;;;;4.55;1.70;;;;;;;31.86;33.66;98603.41;1826104;77;28299;-45
2022/06/22 02:23:30;;;;;;;3.42;1.50;;;;;;;31.88;33.69;98589.23;1808683;77;28336;-43
2022/06/22 02:26:21;;;;;;;4.10;1.72;;;;;;;31.88;33.71;98596.17;1826448;77;28313;-44
2022/06/22 02:29:11;;;;;;;3.80;1.70;;;;;;;31.87;33.79;98584.80;1824010;77;28366;-46
2022/06/22 02:32:02;;;;;;;4.33;1.50;;;;;;;31.87;33.83;98570.91;1817428;77;28856;-42
2022/06/22 02:34:54;;;;;;;3.17;1.50;;;;;;;31.88;33.86;98565.02;1756311;79;28423;-46
2022/06/22 02:37:51;;;;;;;3.37;1.60;;;;;;;31.88;33.88;98558.67;1785803;78;28274;-42
2022/06/22 02:47:02;;;;;;;1.50;1.40;;;;;;;31.85;34.09;98562.08;1843260;76;28264;-43
2022/06/22 02:50:18;;;;;;;5.20;1.57;;;;;;;31.83;34.12;98554.63;1805973;77;28278;-42
2022/06/22 02:53:13;;;;;;;3.50;1.52;;;;;;;31.85;34.18;98557.91;1808951;77;28442;-42
2022/06/22 02:56:04;;;;;;;2.02;1.62;;;;;;;31.84;34.20;98547.92;1825055;76;28286;-44
2022/06/22 02:58:52;;;;;;;4.60;1.55;;;;;;;31.83;34.22;98535.19;1815729;76;28148;-46
2022/06/22 03:01:41;;;;;;;2.80;1.50;;;;;;;31.84;34.23;98536.25;1802707;77;28405;-45
2022/06/22 03:04:30;;;;;;;4.03;1.50;;;;;;;31.87;34.29;98538.96;1784207;79;28443;-47
2022/06/22 03:07:21;;;;;;;5.53;1.60;;;;;;;31.86;34.32;98535.92;1770130;79;28291;-42
2022/06/22 03:10:25;;;;;;;6.42;1.57;;;;;;;31.87;34.44;98530.63;1833724;77;28871;-43
2022/06/22 03:13:16;;;;;;;3.58;1.80;;;;;;;31.87;34.38;98525.07;1817897;77;28413;-43
2022/06/22 03:16:07;;;;;;;3.02;1.72;;;;;;;31.86;34.41;98531.19;1776170;78;28503;-43
2022/06/22 03:18:58;;;;;;;2.37;1.60;;;;;;;31.87;34.39;98525.07;1788263;78;28379;-45
2022/06/22 03:21:48;;;;;;;2.30;1.50;;;;;;;31.86;34.50;98513.70;1794383;78;28283;-47
2022/06/22 03:24:40;;;;;;;3.92;1.47;;;;;;;31.85;34.58;98518.46;1822836;76;28805;-43
2022/06/22 03:27:31;;;;;;;2.98;1.65;;;;;;;31.85;34.69;98527.35;1810660;78;28416;-45
2022/06/22 03:30:26;;;;;;;3.65;1.90;;;;;;;31.87;34.67;98530.63;1829277;77;28222;-47
2022/06/22 03:33:17;;;;;;;5.35;1.65;;;;;;;31.86;34.78;98540.09;1825339;76;28305;-42
2022/06/22 03:36:11;;;;;;;5.55;1.57;;;;;;;31.85;34.79;98555.95;1829481;77;28317;-44
2022/06/22 03:39:08;;;;;;;3.52;1.70;;;;;;;31.84;35.07;98570.14;1813443;77;28261;-43
2022/06/22 03:41:59;;;;;;;4.50;1.70;;;;;;;31.74;35.18;98578.77;1820096;77;28250;-47
2022/06/22 03:44:54;;;;;;;3.40;1.70;;;;;;;31.61;35.52;98576.30;1821610;77;28332;-45
2022/06/22 03:48:01;;;;;;;5.72;2.00;;;;;;;31.48;36.17;98579.97;1768587;79;28066;-47
2022/06/22 03:51:08;;;;;;;6.65;2.20;;;;;;;31.24;37.32;98590.51;1779767;78;28433;-46
2022/06/22 03:54:00;;;;;;;3.95;1.82;;;;;;;31.08;38.17;98616.97;1789752;79;28392;-46
2022/06/22 03:56:54;;;;;;;4.83;2.03;;;;;;;31.01;38.49;98642.36;1825345;77;28370;-50
2022/06/22 03:59:46;;;;;;;4.28;1.70;;;;;;;30.96;38.93;98662.45;1809806;77;28474;-47
2022/06/22 04:02:36;;;;;;;3.50;1.82;;;;;;;30.93;39.33;98681.91;1801758;77;28380;-45
2022/06/22 04:05:27;;;;;;;9.57;2.80;;;;;;;30.91;39.58;98688.34;1820287;77;28232;-48
2022/06/22 04:08:18;;;;;;;4.22;2.20;;;;;;;30.82;40.16;98692.11;1820927;77;28713;-47
2022/06/22 04:11:15;;;;;;;3.83;2.12;;;;;;;30.67;40.69;98687.67;1821781;76;28307;-44
2022/06/22 04:14:15;;;;;;;7.42;2.10;;;;;;;30.59;40.77;98690.63;1822931;77;28319;-46
2022/06/22 04:17:23;;;;;;;10.18;2.10;;;;;;;30.43;40.82;98682.90;1810193;77;28426;-47
2022/06/22 04:20:49;;;;;;;6.03;2.13;;;;;;;30.36;41.05;98694.39;1799184;78;28440;-47
2022/06/22 04:23:32;;;;;;;4.83;1.90;;;;;;;30.30;41.40;98705.81;1810512;76;28298;-46
2022/06/22 04:26:38;;;;;;;5.17;2.00;;;;;;;30.32;41.57;98714.64;1788356;78;28520;-49
2022/06/22 04:29:35;;;;;;;5.78;2.00;;;;;;;30.27;41.81;98727.23;1829239;76;28247;-45
2022/06/22 04:32:32;;;;;;;10.75;2.27;;;;;;;30.20;42.11;98728.19;1819827;77;28397;-47
2022/06/22 04:35:46;;;;;;;6.90;2.20;;;;;;;30.22;42.22;98735.63;1800934;76;28346;-44
2022/06/22 04:38:43;;;;;;;7.62;2.33;;;;;;;30.20;42.41;98730.36;1811554;77;28283;-48
2022/06/22 04:41:38;;;;;;;5.90;2.05;;;;;;;30.19;42.58;98741.20;1816598;77;28208;-45
2022/06/22 04:44:29;;;;;;;6.15;1.90;;;;;;;30.16;42.80;98741.80;1818783;76;28237;-49
2022/06/22 04:47:21;;;;;;;7.03;1.82;;;;;;;30.16;42.94;98731.27;1809120;77;28487;-43
2022/06/22 04:50:12;;;;;;;4.87;1.90;;;;;;;30.16;43.12;98737.64;1816044;78;28406;-48
2022/06/22 04:53:02;;;;;;;7.30;2.17;;;;;;;30.19;43.20;98740.38;1792110;77;28409;-45
2022/06/22 04:55:52;;;;;;;4.35;1.87;;;;;;;30.12;43.33;98743.54;1808405;77;28289;-43
2022/06/22 04:58:52;;;;;;;6.93;2.00;;;;;;;30.11;43.36;98758.50;1804338;76;28355;-44
2022/06/22 05:01:47;;;;;;;7.40;2.05;;;;;;;30.12;43.46;98739.94;1829680;76;28443;-46
2022/06/22 05:04:45;;;;;;;5.35;2.15;;;;;;;30.04;43.39;98735.34;1821449;77;28268;-43
2022/06/22 05:07:54;;;;;;;5.92;2.25;;;;;;;30.03;43.10;98733.72;1805226;76;28461;-47
2022/06/22 05:10:54;;;;;;;5.90;2.12;;;;;;;29.94;43.10;98743.02;1818776;77;28360;-48
2022/06/22 05:13:48;;;;;;;5.28;2.20;;;;;;;29.71;43.67;98743.31;1813868;77;28381;-42
2022/06/22 05:16:37;;;;;;;5.75;2.20;;;;;;;29.57;44.21;98741.02;1758151;79;28541;-48
2022/06/22 05:19:29;;;;;;;9.37;2.10;;;;;;;29.12;44.78;98743.01;1761968;79;28888;-44
2022/06/22 05:22:18;;;;;;;8.30;2.62;;;;;;;28.83;45.41;98728.41;1819137;77;37552;-42
2022/06/22 05:25:09;;;;;;;7.95;2.33;;;;;;;28.84;45.77;98733.67;1825587;77;28435;-47
2022/06/22 05:28:04;;;;;;;4.27;2.00;;;;;;;28.92;45.57;98740.47;1837709;77;28250;-45
2022/06/22 05:30:56;;;;;;;7.33;2.10;;;;;;;28.98;45.29;98737.38;1830214;77;28219;-44
2022/06/22 05:33:47;;;;;;;5.30;2.20;;;;;;;29.01;45.47;98734.00;1834206;77;28725;-44
2022/06/22 05:36:41;;;;;;;5.60;2.30;;;;;;;29.06;45.50;98743.62;1831280;76;28797;-43
2022/06/22 05:39:31;;;;;;;6.72;2.55;;;;;;;29.11;45.70;98735.81;1830743;76;28338;-45
2022/06/22 05:42:20;;;;;;;8.38;2.30;;;;;;;29.14;45.77;98727.77;1826596;77;28300;-43
2022/06/22 05:45:18;;;;;;;7.47;2.25;;;;;;;29.17;45.77;98717.47;1785633;79;28256;-42
2022/06/22 05:48:09;;;;;;;9.35;2.60;;;;;;;29.21;45.77;98718.58;1794017;77;28333;-43
2022/06/22 05:51:17;;;;;;;8.58;2.50;;;;;;;29.16;46.07;98712.25;1843733;77;38632;-46
2022/06/22 05:54:15;;;;;;;7.73;2.20;;;;;;;29.17;46.11;98711.94;1773387;78;28425;-43
2022/06/22 05:57:25;;;;;;;4.90;2.27;;;;;;;29.19;46.01;98704.78;1830872;77;28416;-43
2022/06/22 06:00:23;;;;;;;6.25;2.27;;;;;;;29.18;46.13;98704.50;1840108;76;28207;-43
2022/06/22 06:03:23;;;;;;;6.55;2.20;;;;;;;29.22;46.10;98706.96;1797448;76;28297;-44
2022/06/22 06:06:24;;;;;;;7.83;2.30;;;;;;;29.29;45.86;98722.63;1770584;79;28507;-45
2022/06/22 06:09:15;;;;;;;3.87;2.03;;;;;;;29.38;45.71;98723.61;1822832;76;28336;-44
2022/06/22 06:12:13;;;;;;;6.80;2.40;;;;;;;29.47;45.58;98714.90;1812741;77;28360;-47
2022/06/22 06:15:04;;;;;;;5.75;2.30;;;;;;;29.54;45.50;98720.89;1810615;77;28457;-42
2022/06/22 06:17:57;;;;;;;10.80;2.22;;;;;;;29.59;45.59;98715.28;1796689;77;28404;-43
2022/06/22 06:20:48;;;;;;;5.28;1.92;;;;;;;29.75;45.34;98721.41;1797074;78;28263;-44
2022/06/22 06:23:43;;;;;;;6.00;2.40;;;;;;;29.93;45.01;98738.59;1826541;77;28906;-43
2022/06/22 06:29:56;;;;;;;5.70;2.10;;;;;;;30.17;44.69;98741.25;1805727;77;28389;-46
2022/06/22 06:32:48;;;;;;;5.15;2.00;;;;;;;30.21;44.49;98732.02;1830162;77;28383;-46
2022/06/22 06:35:42;;;;;;;7.10;2.22;;;;;;;30.28;44.29;98710.84;1820775;77;28281;-43
2022/06/22 06:38:39;;;;;;;6.80;2.15;;;;;;;30.33;44.19;98687.23;1814897;78;28289;-43
2022/06/22 06:41:46;;;;;;;5.40;2.00;;;;;;;30.40;43.85;98683.50;1827378;76;28249;-45
2022/06/22 06:44:37;;;;;;;1.82;1.60;;;;;;;30.46;43.64;98679.50;1843632;76;28190;-45
2022/06/22 06:47:39;;;;;;;3.58;1.92;;;;;;;30.50;43.44;98681.34;1827202;77;28215;-43
2022/06/22 06:50:30;;;;;;;4.85;2.08;;;;;;;30.56;43.21;98684.86;1814857;78;28336;-43
2022/06/22 06:53:32;;;;;;;4.08;2.20;;;;;;;30.56;43.06;98684.86;1823330;77;28396;-42
2022/06/22 06:56:30;;;;;;;8.43;1.92;;;;;;;30.54;42.93;98685.73;1830111;76;28281;-46
2022/06/22 06:59:21;;;;;;;4.95;2.02;;;;;;;30.59;42.83;98706.43;1818749;77;28399;-42
2022/06/22 07:02:19;;;;;;;3.77;1.90;;;;;;;30.63;42.68;98692.20;1833719;77;28413;-43
2022/06/22 07:05:10;;;;;;;4.42;1.80;;;;;;;30.65;42.52;98702.42;1795401;78;33238;-46
2022/06/22 07:08:08;;;;;;;4.00;1.98;;;;;;;30.69;42.46;98704.86;1833308;77;28324;-45
2022/06/22 07:11:05;;;;;;;4.60;1.90;;;;;;;30.71;42.33;98703.98;1811093;77;28258;-43
2022/06/22 07:13:56;;;;;;;2.90;2.02;;;;;;;30.73;42.22;98698.39;1820659;78;28350;-43
2022/06/22 07:16:45;;;;;;;6.20;2.30;;;;;;;30.76;42.10;98691.38;1828804;76;28147;-44
2022/06/22 07:19:42;;;;;;;3.17;1.90;;;;;;;30.79;41.99;98694.92;1818910;77;28270;-46
2022/06/22 07:22:34;;;;;;;3.08;1.80;;;;;;;30.82;41.85;98676.30;1833519;76;28286;-45
2022/06/22 07:25:37;;;;;;;2.33;1.70;;;;;;;30.83;41.78;98686.23;1799674;78;28388;-45
2022/06/22 07:28:37;;;;;;;7.75;1.95;;;;;;;30.86;41.73;98688.97;1754682;79;28310;-47
2022/06/22 07:31:29;;;;;;;3.95;1.67;;;;;;;30.86;41.62;98684.80;1829647;77;28306;-43
2022/06/22 07:34:29;;;;;;;3.85;1.87;;;;;;;30.89;41.58;98676.73;1818275;76;28288;-43
2022/06/22 07:37:23;;;;;;;5.22;2.00;;;;;;;30.91;41.51;98681.96;1827649;77;28289;-47
2022/06/22 07:40:18;;;;;;;3.30;1.73;;;;;;;30.90;41.46;98663.11;1821276;78;28391;-44
2022/06/22 07:43:08;;;;;;;4.58;1.70;;;;;;;30.91;41.35;98655.05;1814835;76;28152;-46
2022/06/22 07:45:57;;;;;;;2.37;1.50;;;;;;;30.93;41.29;98658.34;1826722;76;28237;-46
2022/06/22 07:48:48;;;;;;;3.98;1.77;;;;;;;30.95;41.25;98661.62;1817346;77;28380;-48
2022/06/22 07:51:39;;;;;;;6.05;2.00;;;;;;;30.98;41.16;98669.33;1773451;79;28591;-46
2022/06/22 07:54:33;;;;;;;3.08;1.75;;;;;;;31.00;41.07;98668.45;1785983;78;28367;-44
2022/06/22 07:57:31;;;;;;;3.12;1.72;;;;;;;31.02;41.03;98664.80;1789275;79;28562;-44
2022/06/22 08:00:23;;;;;;;4.03;1.70;;;;;;;31.04;40.96;98661.73;1760231;79;28587;-45
2022/06/22 08:03:34;;;;;;;1.67;1.42;;;;;;;31.05;40.90;98664.74;1770365;79;28507;-43
2022/06/22 08:06:26;;;;;;;3.83;1.60;;;;;;;31.05;40.84;98653.09;1769566;78;28453;-43
2022/06/22 08:09:35;;;;;;;3.62;1.92;;;;;;;31.04;40.81;98641.72;1744417;81;28611;-45
2022/06/22 08:12:26;;;;;;;3.67;1.45;;;;;;;31.07;40.74;98647.22;1758177;78;28429;-49
2022/06/22 08:15:17;;;;;;;3.22;1.55;;;;;;;31.07;40.70;98656.92;1758926;80;28513;-47
2022/06/22 08:18:08;;;;;;;4.10;1.80;;;;;;;31.09;40.64;98651.88;1825801;77;28191;-46
2022/06/22 08:20:57;;;;;;;4.22;1.70;;;;;;;31.10;40.58;98657.14;1828814;77;28352;-43
2022/06/22 08:23:46;;;;;;;3.77;1.70;;;;;;;31.12;40.53;98653.48;1836613;77;28210;-45
2022/06/22 08:26:36;;;;;;;6.60;1.80;;;;;;;31.15;40.46;98647.32;1825714;77;28297;-46
2022/06/22 08:29:25;;;;;;;3.55;1.62;;;;;;;31.17;40.40;98646.44;1827176;77;28339;-43
2022/06/22 08:32:28;;;;;;;2.72;1.80;;;;;;;31.18;40.36;98635.58;1788812;78;31228;-43
2022/06/22 08:35:22;;;;;;;3.90;1.90;;;;;;;31.20;40.28;98637.47;1760257;78;28564;-44
2022/06/22 08:38:24;;;;;;;2.85;1.40;;;;;;;31.19;40.26;98633.08;1831267;77;28303;-43
2022/06/22 08:41:36;;;;;;;4.10;1.75;;;;;;;31.19;40.28;98619.20;1832575;76;28229;-45
2022/06/22 08:44:39;;;;;;;3.23;1.63;;;;;;;31.20;40.24;98615.86;1842352;76;28292;-45
2022/06/22 08:48:01;;;;;;;1.55;1.42;;;;;;;31.18;40.24;98605.05;1817593;78;28346;-44
2022/06/22 08:51:18;;;;;;;3.35;1.70;;;;;;;31.18;40.22;98595.34;1795339;78;28355;-45
2022/06/22 08:54:27;;;;;;;2.15;1.42;;;;;;;31.17;40.22;98585.39;1829811;77;28296;-46
2022/06/22 08:57:38;;;;;;;3.13;1.40;;;;;;;31.16;40.22;98577.36;1802208;78;28404;-47
2022/06/22 09:00:38;;;;;;;1.80;1.47;;;;;;;31.16;40.21;98572.64;1723306;80;28600;-44
2022/06/22 09:03:55;;;;;;;2.92;1.80;;;;;;;31.19;40.12;98574.80;1786786;79;28932;-44
2022/06/22 09:06:56;;;;;;;4.35;1.57;;;;;;;31.19;40.10;98569.25;1808574;76;28532;-44
2022/06/22 09:10:09;;;;;;;2.92;1.52;;;;;;;31.21;40.05;98568.37;1825855;76;28210;-43
2022/06/22 09:13:21;;;;;;;3.03;1.60;;;;;;;31.22;40.02;98574.19;1844492;77;28789;-46
2022/06/22 09:16:24;;;;;;;2.33;1.50;;;;;;;31.23;40.02;98568.04;1823399;77;28370;-45
2022/06/22 09:19:28;;;;;;;3.15;1.70;;;;;;;31.24;39.95;98574.69;1809035;77;28222;-43
2022/06/22 09:22:31;;;;;;;4.60;1.60;;;;;;;31.26;39.93;98566.03;1817209;78;28131;-45
2022/06/22 09:25:40;;;;;;;2.20;1.37;;;;;;;31.26;39.93;98566.86;1830822;77;28249;-46
2022/06/22 09:28:40;;;;;;;2.20;1.35;;;;;;;31.28;39.84;98567.36;1811570;77;28404;-45
2022/06/22 09:31:43;;;;;;;3.00;1.15;;;;;;;31.28;39.85;98565.98;1793178;77;28287;-45
2022/06/22 09:34:50;;;;;;;1.82;1.40;;;;;;;31.27;39.74;98564.33;1811284;78;28471;-48
2022/06/22 09:38:04;;;;;;;4.35;1.42;;;;;;;31.32;39.71;98565.59;1819899;77;28209;-46
2022/06/22 09:41:14;;;;;;;2.35;1.50;;;;;;;31.32;39.68;98573.13;1787995;78;28319;-45
2022/06/22 09:44:14;;;;;;;1.40;1.30;;;;;;;31.30;39.67;98567.87;1764918;80;28374;-47
2022/06/22 09:47:29;;;;;;;4.50;1.50;;;;;;;31.33;39.55;98569.19;1763925;79;28626;-44
2022/06/22 09:50:36;;;;;;;1.75;1.22;;;;;;;31.33;39.58;98556.70;1803818;77;28428;-47
2022/06/22 09:53:36;;;;;;;2.25;1.50;;;;;;;31.32;39.53;98548.94;1804902;78;28325;-45
2022/06/22 09:56:30;;;;;;;1.40;1.20;;;;;;;31.36;39.52;98546.38;1851271;77;28364;-47
2022/06/22 09:59:42;;;;;;;2.60;1.30;;;;;;;31.36;39.50;98535.27;1822249;77;28282;-45
2022/06/22 10:02:50;;;;;;;2.33;1.37;;;;;;;31.37;39.42;98529.39;1825250;77;28139;-44
2022/06/22 10:05:53;;;;;;;2.47;1.55;;;;;;;31.37;39.40;98527.17;1837448;77;28279;-44
2022/06/22 10:09:07;;;;;;;1.55;1.40;;;;;;;31.38;39.37;98521.89;1838317;77;28288;-44
2022/06/22 10:12:19;;;;;;;1.72;1.30;;;;;;;31.38;39.35;98524.11;1820221;76;28258;-43
2022/06/22 10:15:32;;;;;;;3.20;1.40;;;;;;;31.38;39.33;98522.72;1827931;78;28279;-44
2022/06/22 10:18:58;;;;;;;2.10;1.40;;;;;;;31.37;39.35;98522.45;1828740;76;28223;-43
2022/06/22 10:21:52;;;;;;;2.00;1.32;;;;;;;31.39;39.36;98516.61;1799866;79;28483;-45
2022/06/22 10:24:59;;;;;;;2.10;1.33;;;;;;;31.39;39.41;98501.34;1830386;77;28394;-45
2022/06/22 10:27:56;;;;;;;1.47;1.37;;;;;;;31.41;39.29;98499.86;1828933;77;28349;-48
2022/06/22 10:31:14;;;;;;;1.90;1.30;;;;;;;31.41;39.26;98492.92;1838716;77;28260;-47
2022/06/22 10:34:25;;;;;;;2.08;1.37;;;;;;;31.45;39.25;98493.72;1833821;77;28289;-45
2022/06/22 10:37:31;;;;;;;1.70;1.60;;;;;;;31.44;39.23;98476.23;1832112;77;28293;-44
2022/06/22 10:47:17;;;;;;;1.32;1.22;;;;;;;31.43;39.22;98452.41;1819090;76;28297;-45
2022/06/22 10:50:23;;;;;;;2.45;1.37;;;;;;;31.41;39.24;98449.89;1831340;77;28391;-46
2022/06/22 10:53:42;;;;;;;3.08;1.27;;;;;;;31.45;39.13;98448.73;1834036;77;28269;-46
2022/06/22 10:56:50;;;;;;;2.23;1.20;;;;;;;31.48;39.12;98441.73;1800086;78;28409;-44
2022/06/22 11:00:04;;;;;;;1.65;1.20;;;;;;;31.49;39.02;98432.25;1814163;78;28326;-45
2022/06/22 11:03:28;;;;;;;1.30;1.20;;;;;;;31.50;39.03;98406.14;1824246;76;28240;-46
2022/06/22 11:06:31;;;;;;;1.70;1.30;;;;;;;31.51;38.97;98414.73;1824916;77;28277;-46
2022/06/22 11:09:34;;;;;;;1.60;1.30;;;;;;;31.49;39.02;98421.14;1809773;78;28310;-44
2022/06/22 11:12:53;;;;;;;1.50;1.40;;;;;;;31.52;38.99;98433.01;1799774;79;28467;-46
2022/06/22 11:15:53;;;;;;;1.37;1.27;;;;;;;31.52;38.94;98433.84;1843584;77;28244;-42
2022/06/22 11:18:45;;;;;;;2.30;1.20;;;;;;;31.53;38.96;98436.84;1837253;76;28344;-44
2022/06/22 11:21:55;;;;;;;2.42;1.40;;;;;;;31.57;38.95;98437.87;1837468;77;28445;-43
2022/06/22 11:25:06;;;;;;;1.12;1.10;;;;;;;31.58;38.81;98437.30;1836810;77;28381;-46
2022/06/22 11:31:10;;;;;;;1.42;1.30;;;;;;;31.59;38.72;98423.66;1822048;77;28243;-47
2022/06/22 11:34:25;;;;;;;1.90;1.30;;;;;;;31.59;38.83;98418.10;1804750;77;28305;-45
2022/06/22 11:37:23;;;;;;;1.67;1.22;;;;;;;31.59;38.84;98423.66;1825405;77;28306;-43
2022/06/22 11:40:23;;;;;;;1.60;1.25;;;;;;;31.59;38.76;98420.88;1821582;77;28306;-48
2022/06/22 11:43:30;;;;;;;1.37;1.27;;;;;;;31.58;38.80;98418.66;1829025;78;28853;-45
2022/06/22 11:46:31;;;;;;;1.60;1.20;;;;;;;31.61;38.77;98413.04;1817042;77;28306;-48
2022/06/22 11:49:40;;;;;;;1.30;1.20;;;;;;;31.59;38.70;98403.66;1809779;77;28278;-47
2022/06/22 11:52:53;;;;;;;2.27;1.37;;;;;;;31.62;38.70;98396.64;1838193;77;28305;-44
2022/06/22 11:55:45;;;;;;;1.32;1.22;;;;;;;31.59;38.71;98396.72;1834971;77;28210;-43
2022/06/22 11:58:55;;;;;;;1.72;1.17;;;;;;;31.60;38.72;98398.93;1788008;78;28512;-44
2022/06/22 12:02:01;;;;;;;1.22;1.02;;;;;;;31.61;38.70;98386.67;1767700;79;28499;-45
2022/06/22 12:05:01;;;;;;;1.25;1.15;;;;;;;31.61;38.55;98372.78;1828332;76;28317;-47
2022/06/22 12:08:04;;;;;;;1.35;1.10;;;;;;;31.59;38.60;98370.34;1807819;78;28790;-43
2022/06/22 12:11:17;;;;;;;1.30;1.20;;;;;;;31.61;38.49;98396.38;1813525;77;28815;-44
2022/06/22 12:17:45;;;;;;;1.30;1.20;;;;;;;31.59;38.61;98411.16;1810828;77;28233;-46
2022/06/22 12:21:11;;;;;;;1.45;1.05;;;;;;;31.56;38.60;98432.61;1827590;77;28351;-45
2022/06/22 12:24:22;;;;;;;2.00;1.20;;;;;;;31.57;38.60;98471.75;1792117;78;28369;-46
2022/06/22 12:27:22;;;;;;;1.30;1.20;;;;;;;31.56;38.56;98482.59;1771770;80;28491;-46
2022/06/22 12:30:23;;;;;;;2.52;1.30;;;;;;;31.57;38.53;98514.78;1814847;78;28324;-45
2022/06/22 12:33:21;;;;;;;1.60;1.20;;;;;;;31.61;38.52;98504.67;1800506;77;28287;-45
2022/06/22 12:36:29;;;;;;;2.37;1.20;;;;;;;31.61;38.49;98490.22;1837964;77;28382;-45
2022/06/22 12:39:23;;;;;;;1.85;1.22;;;;;;;31.64;38.41;98467.38;1827300;77;28341;-44
2022/06/22 12:42:34;;;;;;;2.70;1.30;;;;;;;31.65;38.42;98441.23;1835561;77;28199;-44
2022/06/22 12:45:43;;;;;;;1.27;1.17;;;;;;;31.68;38.42;98445.33;1747572;78;30236;-49
2022/06/22 12:48:50;;;;;;;1.62;1.30;;;;;;;31.70;38.32;98458.33;1818752;77;28270;-45
2022/06/22 12:52:03;;;;;;;1.75;1.40;;;;;;;31.67;38.29;98450.06;1845909;77;31334;-43
2022/06/22 12:54:57;;;;;;;1.30;1.20;;;;;;;31.69;38.34;98446.42;1799586;79;28399;-45
2022/06/22 12:58:10;;;;;;;1.60;1.00;;;;;;;31.68;38.30;98435.61;1814873;77;28334;-44
2022/06/22 13:01:00;;;;;;;1.30;1.10;;;;;;;31.72;38.25;98436.60;1836812;77;28268;-44
2022/06/22 13:03:52;;;;;;;1.35;1.10;;;;;;;31.71;38.25;98439.97;1839169;77;28337;-48
2022/06/22 13:06:43;;;;;;;1.42;1.25;;;;;;;31.73;38.22;98430.75;1837406;77;28304;-44
2022/06/22 13:09:33;;;;;;;1.30;1.20;;;;;;;31.75;38.17;98434.58;1838577;77;28853;-45
2022/06/22 13:12:24;;;;;;;1.17;1.15;;;;;;;31.75;38.14;98445.69;1833823;77;28363;-44
2022/06/22 13:15:37;;;;;;;1.12;1.10;;;;;;;31.77;38.06;98446.19;1810132;78;28289;-45
2022/06/22 13:18:38;;;;;;;1.22;1.12;;;;;;;31.79;38.09;98464.73;1833780;77;28384;-46
2022/06/22 13:21:35;;;;;;;1.42;1.10;;;;;;;31.77;38.12;98473.95;1837413;77;28387;-43
2022/06/22 13:24:26;;;;;;;3.05;1.30;;;;;;;31.75;38.16;98467.91;1827497;77;28154;-46
2022/06/22 13:27:47;;;;;;;1.17;1.07;;;;;;;31.76;38.14;98465.39;1788522;78;28329;-46
2022/06/22 13:30:45;;;;;;;1.95;1.10;;;;;;;31.77;38.16;98452.56;1816812;78;28282;-46
2022/06/22 13:33:49;;;;;;;1.70;1.20;;;;;;;31.72;38.19;98461.03;1810696;77;28210;-47
2022/06/22 13:36:59;;;;;;;2.00;1.20;;;;;;;31.71;38.20;98454.42;1819418;77;28178;-44
2022/06/22 13:40:02;;;;;;;1.00;1.00;;;;;;;31.72;38.23;98457.43;1812140;78;28393;-42
2022/06/22 13:43:05;;;;;;;2.22;1.25;;;;;;;31.71;38.24;98455.81;1835431;77;28193;-46
2022/06/22 13:46:00;;;;;;;1.82;1.50;;;;;;;31.72;38.14;98468.53;1820359;77;28360;-48
2022/06/22 13:49:03;;;;;;;1.10;1.00;;;;;;;31.71;38.21;98478.03;1838530;77;28276;-45
2022/06/22 13:52:12;;;;;;;1.15;1.10;;;;;;;31.73;38.09;98484.08;1823753;77;28129;-43
2022/06/22 13:55:32;;;;;;;1.67;1.30;;;;;;;31.73;38.14;98489.63;1826611;77;28187;-44
2022/06/22 13:58:30;;;;;;;1.40;1.20;;;;;;;31.73;38.14;98495.19;1795567;77;28361;-47
2022/06/22 14:01:33;;;;;;;1.15;1.00;;;;;;;31.69;38.18;98499.75;1779960;79;28849;-45
2022/06/22 14:04:30;;;;;;;2.03;1.00;;;;;;;31.70;38.13;98511.91;1772879;79;28485;-45
2022/06/22 14:07:24;;;;;;;1.25;1.20;;;;;;;31.72;38.07;98507.42;1810393;77;28305;-45
2022/06/22 14:10:28;;;;;;;1.17;1.07;;;;;;;31.73;37.99;98516.02;1792216;78;28395;-47
2022/06/22 14:13:45;;;;;;;2.00;1.20;;;;;;;31.73;37.96;98518.23;1837992;77;28257;-44
2022/06/22 14:16:37;;;;;;;2.00;1.20;;;;;;;31.75;37.89;98519.28;1838121;76;28357;-45
2022/06/22 14:19:50;;;;;;;1.00;1.00;;;;;;;31.72;37.91;98487.98;1785909;78;28472;-44
2022/06/22 14:22:43;;;;;;;1.27;1.17;;;;;;;31.73;37.90;98515.45;1827366;77;28366;-45
2022/06/22 14:25:40;;;;;;;1.95;1.35;;;;;;;31.72;37.87;98531.84;1836665;77;28302;-44
2022/06/22 14:28:41;;;;;;;2.87;1.10;;;;;;;31.75;37.82;98535.39;1836520;77;28243;-45
2022/06/22 14:31:42;;;;;;;2.30;1.47;;;;;;;31.77;37.80;98526.72;1809844;78;28326;-49